Time;durP1;ratioP1;P1;durP2;ratioP2;P2;SDS_P1;SDS_P2;PMS_P1;PMS_P2;Temp;Humidity;BMP_temperature;BMP_pressure;BME280_temperature;BME280_humidity;BME280_pressure;Samples;Min_cycle;Max_cycle;Signal;HPM_P1;HPM_P2
2021/04/02 00:01:16;;;;;;;2.40;2.00;;;;;;;7.59;89.26;101780.47;4986812;28;20026;-73
2021/04/02 00:03:41;;;;;;;3.25;2.13;;;;;;;7.56;89.43;101781.09;4989549;28;20109;-73
2021/04/02 00:06:09;;;;;;;2.30;1.90;;;;;;;7.25;91.16;101785.59;4953789;28;20069;-74
2021/04/02 00:08:34;;;;;;;3.22;2.30;;;;;;;7.32;92.26;101784.06;4987868;28;20034;-73
2021/04/02 00:11:08;;;;;;;2.55;2.05;;;;;;;7.60;90.55;101782.06;4986861;28;20137;-73
2021/04/02 00:13:46;;;;;;;4.25;2.00;;;;;;;7.29;90.67;101776.66;4989674;28;20109;-72
2021/04/02 00:16:15;;;;;;;4.82;2.03;;;;;;;7.35;91.44;101774.66;4989687;28;20062;-73
2021/04/02 00:18:41;;;;;;;2.10;1.90;;;;;;;7.47;90.19;101782.13;4968291;28;20057;-73
2021/04/02 00:21:09;;;;;;;3.17;2.30;;;;;;;7.38;89.90;101779.38;4987127;28;20116;-72
2021/04/02 00:23:36;;;;;;;2.30;2.10;;;;;;;7.00;91.58;101773.59;4989404;28;20557;-73
2021/04/02 00:26:05;;;;;;;3.22;2.22;;;;;;;6.64;93.88;101775.47;4987918;28;20030;-73
2021/04/02 00:28:30;;;;;;;2.30;2.08;;;;;;;6.80;94.00;101783.94;4984301;28;20040;-73
2021/04/02 00:30:57;;;;;;;2.72;2.17;;;;;;;6.81;94.49;101775.66;4988533;28;20038;-72
2021/04/02 00:33:26;;;;;;;3.22;2.15;;;;;;;6.79;94.43;101777.81;4961956;28;20464;-73
2021/04/02 00:35:52;;;;;;;2.17;1.88;;;;;;;6.76;94.65;101775.75;4984528;28;20030;-73
2021/04/02 00:38:18;;;;;;;2.20;1.98;;;;;;;6.66;94.18;101772.50;4986116;28;20099;-73
2021/04/02 00:40:50;;;;;;;3.13;2.20;;;;;;;6.54;94.58;101773.03;4987479;28;20027;-74
2021/04/02 00:43:17;;;;;;;2.65;2.17;;;;;;;6.77;94.54;101763.94;4983692;28;20042;-73
2021/04/02 00:45:43;;;;;;;3.13;2.22;;;;;;;6.71;94.28;101759.00;4989491;28;20438;-73
2021/04/02 00:48:11;;;;;;;4.03;2.30;;;;;;;6.68;93.95;101760.38;4989030;28;20033;-74
2021/04/02 00:51:07;;;;;;;2.35;2.15;;;;;;;6.91;93.00;101771.94;4987237;28;20026;-74
2021/04/02 00:53:36;;;;;;;2.67;2.40;;;;;;;6.94;91.67;101766.78;4982731;28;20085;-74
2021/04/02 00:56:04;;;;;;;2.40;2.00;;;;;;;6.92;91.33;101768.97;4968027;28;20027;-73
2021/04/02 00:58:32;;;;;;;3.65;2.50;;;;;;;6.98;90.61;101773.13;4988594;28;20097;-74
2021/04/02 01:00:57;;;;;;;2.58;2.28;;;;;;;6.82;92.58;101777.22;4984779;28;20035;-73
2021/04/02 01:03:24;;;;;;;2.35;2.15;;;;;;;7.00;90.81;101781.63;4990696;28;20549;-73
2021/04/02 01:05:52;;;;;;;4.00;2.30;;;;;;;6.89;91.28;101769.53;4989944;28;20169;-73
2021/04/02 01:08:20;;;;;;;4.10;2.22;;;;;;;6.87;91.18;101773.63;4969280;28;20031;-73
2021/04/02 01:10:47;;;;;;;4.10;2.78;;;;;;;6.76;91.71;101781.09;4966598;28;20034;-73
2021/04/02 01:13:16;;;;;;;4.70;2.47;;;;;;;6.69;92.17;101786.06;4976442;28;20034;-72
2021/04/02 01:16:16;;;;;;;3.70;2.80;;;;;;;6.53;93.58;101776.78;4976095;28;20026;-73
2021/04/02 01:19:03;;;;;;;2.90;2.60;;;;;;;6.43;92.90;101774.31;4971586;28;20161;-73
2021/04/02 01:21:32;;;;;;;3.53;2.90;;;;;;;6.29;93.64;101768.97;4987170;28;20045;-73
2021/04/02 01:24:14;;;;;;;2.70;2.38;;;;;;;6.35;94.16;101775.78;4968660;28;20263;-73
2021/04/02 01:27:02;;;;;;;5.65;2.92;;;;;;;6.30;93.96;101770.56;4986069;28;20026;-73
2021/04/02 01:29:30;;;;;;;5.57;3.25;;;;;;;6.16;94.53;101769.75;4978850;28;20042;-74
2021/04/02 01:31:59;;;;;;;5.93;3.20;;;;;;;6.33;94.91;101767.28;4987493;28;20070;-74
2021/04/02 01:34:35;;;;;;;4.60;2.97;;;;;;;6.43;93.67;101762.84;4987144;28;20035;-73
2021/04/02 01:37:06;;;;;;;5.70;3.78;;;;;;;6.51;93.90;101772.81;4969988;28;20027;-73
2021/04/02 01:39:35;;;;;;;4.53;3.15;;;;;;;6.65;92.97;101769.03;4961832;28;20034;-74
2021/04/02 01:42:04;;;;;;;7.03;3.55;;;;;;;6.58;91.86;101765.19;4972269;28;20058;-74
2021/04/02 01:44:35;;;;;;;6.53;3.40;;;;;;;6.64;92.07;101755.94;4973805;28;20026;-74
2021/04/02 01:47:01;;;;;;;6.45;3.65;;;;;;;6.53;92.32;101763.38;4983661;28;20031;-74
2021/04/02 01:49:33;;;;;;;5.88;3.40;;;;;;;6.32;93.91;101751.53;4977801;28;20021;-74
2021/04/02 01:51:59;;;;;;;6.68;3.80;;;;;;;6.38;93.78;101747.66;4974495;28;20085;-74
2021/04/02 01:54:28;;;;;;;5.82;4.22;;;;;;;6.37;93.73;101756.75;4984534;28;20034;-74
2021/04/02 01:56:55;;;;;;;5.63;3.92;;;;;;;6.35;93.31;101749.03;4991885;28;20106;-73
2021/04/02 01:59:24;;;;;;;7.10;4.22;;;;;;;6.30;93.89;101751.03;4972774;28;20035;-73
2021/04/02 02:01:51;;;;;;;6.15;4.18;;;;;;;6.37;93.78;101751.41;4978094;28;20080;-73
2021/04/02 02:04:22;;;;;;;8.20;4.55;;;;;;;6.16;93.93;101742.22;4970011;28;20034;-73
2021/04/02 02:06:52;;;;;;;7.90;4.90;;;;;;;6.12;95.05;101744.72;4971732;28;20032;-74
2021/04/02 02:09:56;;;;;;;8.27;5.00;;;;;;;6.01;95.80;101740.66;4984935;28;20038;-74
2021/04/02 02:12:31;;;;;;;10.68;5.35;;;;;;;6.15;95.91;101740.66;4983869;28;20030;-73
2021/04/02 02:15:07;;;;;;;9.02;5.40;;;;;;;6.19;95.75;101736.28;4971501;28;20036;-73
2021/04/02 02:17:36;;;;;;;9.27;5.47;;;;;;;6.34;95.17;101735.97;4971515;28;20031;-74
2021/04/02 02:20:10;;;;;;;11.20;5.80;;;;;;;6.31;94.55;101739.22;4986459;28;20030;-74
2021/04/02 02:22:41;;;;;;;11.95;5.60;;;;;;;6.27;93.52;101736.38;4980296;28;20029;-74
2021/04/02 02:25:12;;;;;;;11.15;6.28;;;;;;;6.17;93.65;101741.94;4974005;28;20031;-73
2021/04/02 02:27:43;;;;;;;14.93;6.53;;;;;;;5.99;95.52;101742.03;4981888;28;20034;-72
2021/04/02 02:30:16;;;;;;;13.45;6.60;;;;;;;5.88;96.32;101746.00;4999415;28;20498;-74
2021/04/02 02:32:45;;;;;;;15.95;6.95;;;;;;;5.87;97.30;101752.41;4978274;28;20667;-74
2021/04/02 02:35:12;;;;;;;13.23;7.05;;;;;;;5.84;96.82;101747.66;4987500;28;20487;-73
2021/04/02 02:37:41;;;;;;;13.15;7.05;;;;;;;5.95;97.28;101741.84;4973820;28;20045;-73
2021/04/02 02:40:10;;;;;;;13.95;7.10;;;;;;;6.00;96.06;101740.97;4991275;28;20033;-73
2021/04/02 02:42:36;;;;;;;12.48;6.70;;;;;;;6.02;96.00;101730.75;4989539;28;20061;-73
2021/04/02 02:45:08;;;;;;;12.98;7.05;;;;;;;6.11;95.22;101724.41;4978446;28;20034;-73
2021/04/02 02:47:34;;;;;;;14.13;7.10;;;;;;;5.86;95.89;101716.91;4968985;28;20400;-73
2021/04/02 02:50:01;;;;;;;12.73;7.03;;;;;;;5.79;96.85;101718.34;4974712;28;20168;-73
2021/04/02 02:52:27;;;;;;;14.32;7.57;;;;;;;5.86;96.72;101721.44;4987302;28;20145;-73
2021/04/02 02:54:56;;;;;;;12.90;7.35;;;;;;;5.94;95.75;101723.44;4968792;28;20038;-73
2021/04/02 02:57:23;;;;;;;15.73;8.05;;;;;;;5.95;95.57;101709.75;4989891;28;20030;-74
2021/04/02 02:59:53;;;;;;;15.68;7.85;;;;;;;5.85;96.77;101717.97;4972458;28;20030;-74
2021/04/02 03:02:19;;;;;;;16.73;8.68;;;;;;;5.73;97.34;101716.84;4991400;28;20085;-74
2021/04/02 03:04:48;;;;;;;16.65;8.63;;;;;;;5.78;97.34;101722.09;4963821;28;20533;-73
2021/04/02 03:07:14;;;;;;;17.60;8.57;;;;;;;5.96;96.94;101711.31;4990656;28;20517;-74
2021/04/02 03:09:42;;;;;;;19.42;9.38;;;;;;;6.13;95.58;101716.09;4967776;28;20498;-74
2021/04/02 03:12:11;;;;;;;21.27;9.77;;;;;;;6.15;95.33;101703.22;4966518;28;20450;-73
2021/04/02 03:14:38;;;;;;;20.17;9.45;;;;;;;6.06;96.53;101696.97;4984375;28;20069;-73
2021/04/02 03:17:06;;;;;;;22.05;10.18;;;;;;;6.04;97.69;101693.84;4976453;28;20491;-73
2021/04/02 03:19:38;;;;;;;21.52;10.50;;;;;;;5.95;98.59;101695.59;4977477;28;20034;-73
2021/04/02 03:22:11;;;;;;;21.98;10.38;;;;;;;6.01;98.01;101689.06;4972214;28;20446;-74
2021/04/02 03:24:47;;;;;;;23.52;10.07;;;;;;;6.04;98.28;101686.59;4987213;28;20073;-74
2021/04/02 03:27:18;;;;;;;23.90;10.10;;;;;;;6.22;97.22;101692.91;4973663;28;20746;-74
2021/04/02 03:29:46;;;;;;;22.83;10.27;;;;;;;6.16;97.28;101689.53;4969334;28;20507;-74
2021/04/02 03:32:12;;;;;;;20.02;9.90;;;;;;;6.24;96.04;101685.38;4970865;28;20023;-73
2021/04/02 03:34:40;;;;;;;19.85;9.25;;;;;;;6.29;95.64;101693.31;4984624;28;20076;-74
2021/04/02 03:37:10;;;;;;;22.15;9.90;;;;;;;6.22;95.82;101692.91;4989139;28;20038;-74
2021/04/02 03:39:41;;;;;;;21.95;8.93;;;;;;;6.09;96.95;101696.38;4982851;28;20491;-74
2021/04/02 03:42:11;;;;;;;;;;;;;;;6.15;97.35;101704.03;4965893;28;20445;-73
2021/04/02 03:44:41;;;;;;;17.60;8.07;;;;;;;6.30;95.77;101711.72;4970834;28;19921;-74
2021/04/02 03:47:16;;;;;;;15.05;7.60;;;;;;;6.37;94.52;101711.28;4984096;28;20088;-74
2021/04/02 03:49:44;;;;;;;16.40;7.22;;;;;;;6.21;95.61;101700.13;4981925;28;20026;-74
2021/04/02 03:52:16;;;;;;;19.25;7.35;;;;;;;6.18;95.07;101698.06;4986407;28;20033;-74
2021/04/02 03:54:46;;;;;;;16.60;8.18;;;;;;;6.07;96.14;101690.53;4991160;28;20069;-74
2021/04/02 03:57:13;;;;;;;;;;;;;;;6.02;96.97;101691.44;4985125;28;20403;-73
2021/04/02 03:59:43;;;;;;;17.40;8.35;;;;;;;6.04;97.72;101688.47;4973279;28;19964;-73
2021/04/02 04:02:10;;;;;;;19.80;9.00;;;;;;;6.07;98.24;101687.88;4973417;28;20026;-74
2021/04/02 04:04:37;;;;;;;25.40;10.15;;;;;;;6.06;98.54;101696.97;4973243;28;20450;-74
2021/04/02 04:07:12;;;;;;;22.30;9.38;;;;;;;6.16;100.00;101694.91;4982094;28;20138;-74
2021/04/02 04:09:41;;;;;;;26.63;10.75;;;;;;;6.12;100.00;101695.78;4975041;28;20904;-74
2021/04/02 04:12:13;;;;;;;24.88;11.32;;;;;;;6.17;100.00;101685.00;4972290;28;20379;-74
2021/04/02 04:14:47;;;;;;;26.48;11.27;;;;;;;6.29;100.00;101678.03;4989872;28;20042;-74
2021/04/02 04:17:20;;;;;;;26.45;11.27;;;;;;;6.30;100.00;101684.19;4980054;28;20114;-75
2021/04/02 04:19:50;;;;;;;31.65;12.02;;;;;;;6.41;100.00;101685.53;4965788;28;20035;-74
2021/04/02 04:22:22;;;;;;;34.78;13.23;;;;;;;6.56;100.00;101687.91;4971591;28;20056;-74
2021/04/02 04:24:48;;;;;;;30.10;12.80;;;;;;;6.72;100.00;101688.31;4969244;28;20045;-74
2021/04/02 04:27:15;;;;;;;36.35;13.75;;;;;;;6.69;100.00;101679.03;4986852;28;20399;-74
2021/04/02 04:29:44;;;;;;;37.03;13.98;;;;;;;6.63;100.00;101682.09;4990866;28;20061;-74
2021/04/02 04:32:14;;;;;;;37.60;14.73;;;;;;;6.78;100.00;101682.53;4989411;28;20030;-74
2021/04/02 04:34:42;;;;;;;37.05;14.57;;;;;;;6.81;100.00;101689.19;4980814;28;20041;-74
2021/04/02 04:37:07;;;;;;;39.97;14.93;;;;;;;6.89;100.00;101691.91;4988897;28;20026;-76
2021/04/02 04:39:34;;;;;;;37.40;14.25;;;;;;;6.87;100.00;101687.97;4989969;28;20046;-74
2021/04/02 04:42:00;;;;;;;37.35;14.85;;;;;;;6.86;100.00;101681.03;4963507;28;20482;-75
2021/04/02 04:44:27;;;;;;;42.03;15.45;;;;;;;6.86;100.00;101678.34;4994441;28;20034;-74
2021/04/02 04:46:53;;;;;;;37.38;14.63;;;;;;;6.93;100.00;101681.41;4983954;28;20029;-74
2021/04/02 04:49:18;;;;;;;35.22;15.05;;;;;;;7.12;100.00;101677.41;4972169;28;20503;-74
2021/04/02 04:51:47;;;;;;;34.03;14.90;;;;;;;7.02;100.00;101679.56;4984337;28;20026;-74
2021/04/02 04:54:14;;;;;;;35.10;14.55;;;;;;;7.15;100.00;101684.84;4958831;28;20038;-74
2021/04/02 04:56:42;;;;;;;34.08;14.90;;;;;;;7.24;100.00;101676.84;4971537;28;20026;-74
2021/04/02 04:59:10;;;;;;;32.70;15.27;;;;;;;7.24;100.00;101674.97;4986898;28;20463;-74
2021/04/02 05:01:45;;;;;;;31.65;15.15;;;;;;;7.24;100.00;101666.94;4987011;28;20034;-74
2021/04/02 05:04:12;;;;;;;34.35;16.02;;;;;;;7.29;100.00;101674.88;4985368;28;20035;-74
2021/04/02 05:06:40;;;;;;;29.38;15.73;;;;;;;7.45;100.00;101663.75;4968537;28;20105;-74
2021/04/02 05:09:06;;;;;;;33.88;17.45;;;;;;;7.47;99.93;101667.69;4983070;28;20126;-74
2021/04/02 05:11:35;;;;;;;36.70;17.33;;;;;;;7.44;100.00;101668.31;4990954;28;20062;-74
2021/04/02 05:14:01;;;;;;;33.75;17.35;;;;;;;7.50;100.00;101674.31;4975773;28;20027;-75
2021/04/02 05:16:28;;;;;;;34.90;18.83;;;;;;;7.48;100.00;101674.63;4987021;28;20030;-74
2021/04/02 05:18:54;;;;;;;36.92;20.33;;;;;;;7.41;100.00;101665.47;4975193;28;20464;-74
2021/04/02 05:21:20;;;;;;;40.80;20.70;;;;;;;7.55;100.00;101674.19;4985496;28;20109;-74
2021/04/02 05:23:47;;;;;;;38.22;21.45;;;;;;;7.44;100.00;101672.88;4994120;28;20049;-74
2021/04/02 05:26:15;;;;;;;39.60;21.90;;;;;;;7.48;99.66;101668.47;4992628;28;20026;-74
2021/04/02 05:28:41;;;;;;;41.13;22.13;;;;;;;7.46;99.67;101670.66;4992566;28;20034;-74
2021/04/02 05:31:07;;;;;;;39.80;21.23;;;;;;;7.29;100.00;101671.38;4994201;28;20042;-74
2021/04/02 05:33:33;;;;;;;30.00;17.90;;;;;;;7.31;100.00;101671.88;4994742;28;20069;-74
2021/04/02 05:35:58;;;;;;;27.20;15.98;;;;;;;7.36;98.43;101661.00;4992178;28;20065;-74
2021/04/02 05:38:24;;;;;;;27.45;14.63;;;;;;;7.35;98.46;101667.47;4993658;28;20487;-74
2021/04/02 05:40:49;;;;;;;27.67;14.43;;;;;;;7.35;97.63;101672.03;4994038;28;20045;-74
2021/04/02 05:43:31;;;;;;;23.73;13.80;;;;;;;7.34;96.64;101675.84;4989039;28;20644;-73
2021/04/02 05:45:57;;;;;;;25.38;13.65;;;;;;;7.18;97.68;101681.56;4990177;28;20511;-73
2021/04/02 05:48:24;;;;;;;25.40;12.05;;;;;;;7.17;97.29;101685.34;4989636;28;20169;-74
2021/04/02 05:50:54;;;;;;;23.10;12.02;;;;;;;7.04;96.79;101682.75;4987986;28;20549;-73
2021/04/02 05:53:21;;;;;;;19.58;10.77;;;;;;;6.98;96.84;101690.09;4974723;28;20033;-74
2021/04/02 05:55:49;;;;;;;20.00;11.40;;;;;;;7.03;95.78;101687.28;4989365;28;20026;-74
2021/04/02 05:58:14;;;;;;;20.17;10.45;;;;;;;6.89;96.50;101694.59;4992071;28;20038;-73
2021/04/02 06:00:40;;;;;;;16.55;9.60;;;;;;;6.83;96.58;101693.13;4970543;28;20046;-75
2021/04/02 06:03:07;;;;;;;22.33;9.90;;;;;;;6.77;96.19;101689.00;4990685;28;20046;-74
2021/04/02 06:05:33;;;;;;;18.67;9.35;;;;;;;6.84;96.36;101693.91;4990175;28;20029;-74
2021/04/02 06:07:59;;;;;;;17.88;8.77;;;;;;;6.90;95.89;101684.69;4986422;28;20037;-74
2021/04/02 06:10:26;;;;;;;13.73;8.35;;;;;;;6.85;96.64;101682.13;4990620;28;20030;-73
2021/04/02 06:12:51;;;;;;;19.33;8.40;;;;;;;6.87;96.33;101687.97;4987821;28;20038;-73
2021/04/02 06:15:18;;;;;;;18.05;8.43;;;;;;;6.93;95.39;101692.13;4976608;28;20037;-74
2021/04/02 06:18:01;;;;;;;18.23;8.15;;;;;;;6.96;94.85;101699.53;4986886;28;20055;-74
2021/04/02 06:20:39;;;;;;;19.13;8.02;;;;;;;6.76;95.26;101698.13;4987724;28;20030;-74
2021/04/02 06:23:18;;;;;;;14.60;8.02;;;;;;;6.79;95.24;101702.09;4991007;28;20046;-74
2021/04/02 06:25:48;;;;;;;14.63;7.53;;;;;;;6.84;94.58;101700.06;4990461;28;20035;-74
2021/04/02 06:28:22;;;;;;;18.30;7.35;;;;;;;6.80;94.00;101701.78;4990377;28;20096;-74
2021/04/02 06:31:14;;;;;;;15.18;6.22;;;;;;;6.74;94.73;101700.31;4969756;28;20034;-75
2021/04/02 06:33:41;;;;;;;14.88;6.18;;;;;;;6.68;94.92;101704.19;4954506;28;20065;-75
2021/04/02 06:36:23;;;;;;;15.90;6.80;;;;;;;6.77;94.03;101699.72;4978777;28;20033;-75
2021/04/02 06:38:49;;;;;;;;;;;;;;;6.71;94.63;101697.44;4985240;28;20495;-75
2021/04/02 06:41:16;;;;;;;14.30;6.22;;;;;;;6.63;95.16;101708.88;4992100;28;19914;-75
2021/04/02 06:43:50;;;;;;;15.70;6.15;;;;;;;6.72;95.34;101701.69;4985464;28;20035;-74
2021/04/02 06:46:23;;;;;;;14.80;6.43;;;;;;;6.85;96.17;101690.16;4985328;28;20464;-75
2021/04/02 06:48:55;;;;;;;13.40;5.60;;;;;;;6.99;95.49;101680.16;4990963;28;20541;-75
2021/04/02 06:51:22;;;;;;;14.57;5.95;;;;;;;6.96;95.30;101686.13;4974274;28;20077;-75
2021/04/02 06:53:50;;;;;;;17.08;5.25;;;;;;;7.13;94.63;101687.06;4990035;28;20038;-75
2021/04/02 06:56:17;;;;;;;10.88;5.10;;;;;;;7.19;94.07;101699.22;4989637;28;20033;-72
2021/04/02 06:58:44;;;;;;;13.88;5.25;;;;;;;7.27;93.75;101687.78;4991240;28;20046;-75
2021/04/02 07:01:13;;;;;;;12.15;5.57;;;;;;;7.26;92.71;101702.25;4978469;28;20038;-75
2021/04/02 07:03:41;;;;;;;15.90;5.43;;;;;;;7.46;92.93;101681.38;4989166;28;20030;-74
2021/04/02 07:06:07;;;;;;;16.70;4.50;;;;;;;7.32;92.81;101684.94;4987165;28;20034;-73
2021/04/02 07:08:34;;;;;;;16.48;4.93;;;;;;;7.39;92.87;101686.41;4988970;28;20479;-74
2021/04/02 07:11:00;;;;;;;9.65;4.38;;;;;;;7.35;92.44;101678.19;4984970;28;20058;-75
2021/04/02 07:13:35;;;;;;;8.23;4.43;;;;;;;7.51;91.83;101675.91;4979697;28;20557;-75
2021/04/02 07:16:02;;;;;;;10.95;4.88;;;;;;;7.46;92.09;101673.34;4987081;28;20487;-75
2021/04/02 07:18:28;;;;;;;12.30;4.75;;;;;;;7.53;92.55;101684.44;4989294;28;20035;-74
2021/04/02 07:20:54;;;;;;;10.02;4.82;;;;;;;7.59;91.31;101675.16;4986051;28;20031;-74
2021/04/02 07:23:20;;;;;;;10.73;5.03;;;;;;;7.67;91.78;101677.06;4986489;28;20042;-75
2021/04/02 07:25:45;;;;;;;7.78;4.57;;;;;;;7.82;90.94;101676.66;4990699;28;20567;-74
2021/04/02 07:28:11;;;;;;;11.50;4.65;;;;;;;7.81;89.68;101683.91;4990574;28;20113;-75
2021/04/02 07:30:38;;;;;;;9.18;4.28;;;;;;;7.88;88.97;101676.19;4987648;28;20033;-73
2021/04/02 07:33:08;;;;;;;10.15;5.00;;;;;;;7.92;89.25;101671.81;4978177;28;20049;-74
2021/04/02 07:35:40;;;;;;;12.82;4.38;;;;;;;7.92;88.62;101674.47;4987513;28;20034;-74
2021/04/02 07:38:26;;;;;;;12.88;4.75;;;;;;;7.99;88.54;101666.00;4989800;28;20061;-74
2021/04/02 07:40:51;;;;;;;13.68;4.65;;;;;;;8.04;88.04;101663.16;4982407;28;20036;-74
2021/04/02 07:43:18;;;;;;;12.77;4.38;;;;;;;8.02;88.86;101652.75;4991898;28;20762;-74
2021/04/02 07:45:51;;;;;;;14.18;4.45;;;;;;;8.12;88.95;101657.00;4992208;28;20557;-74
2021/04/02 07:48:25;;;;;;;17.58;4.55;;;;;;;8.28;87.68;101654.72;4978465;28;20113;-74
2021/04/02 07:50:57;;;;;;;13.60;3.97;;;;;;;8.26;85.72;101646.97;4993011;28;20126;-74
2021/04/02 07:53:26;;;;;;;9.00;3.35;;;;;;;8.32;83.78;101636.88;4992462;28;20026;-74
2021/04/02 07:56:11;;;;;;;8.85;3.03;;;;;;;8.39;82.27;101634.50;4979552;28;20100;-74
2021/04/02 07:58:47;;;;;;;7.55;3.00;;;;;;;8.32;82.35;101634.19;4999565;28;20120;-74
2021/04/02 08:01:16;;;;;;;10.80;3.33;;;;;;;8.40;81.87;101634.19;4989248;28;20033;-74
2021/04/02 08:03:44;;;;;;;9.18;3.10;;;;;;;8.48;81.88;101629.94;4990645;28;20069;-74
2021/04/02 08:06:26;;;;;;;13.20;3.55;;;;;;;8.71;81.12;101621.38;4991019;28;20027;-74
2021/04/02 08:08:53;;;;;;;9.00;3.20;;;;;;;8.48;81.04;101619.97;4970724;28;20053;-76
2021/04/02 08:11:25;;;;;;;10.10;3.22;;;;;;;8.65;80.96;101605.78;4967610;28;20062;-74
2021/04/02 08:13:52;;;;;;;9.98;3.13;;;;;;;8.89;80.13;101612.19;4988706;28;20040;-75
2021/04/02 08:16:33;;;;;;;8.45;2.90;;;;;;;9.07;80.05;101611.06;4989576;28;20467;-74
2021/04/02 08:19:24;;;;;;;12.85;3.33;;;;;;;9.13;80.07;101606.28;4998798;28;20113;-75
2021/04/02 08:22:07;;;;;;;14.48;2.90;;;;;;;9.35;78.61;101599.91;4985617;28;20495;-75
2021/04/02 08:24:38;;;;;;;10.85;3.05;;;;;;;9.37;78.72;101589.59;4975360;28;20066;-74
2021/04/02 08:27:05;;;;;;;8.82;3.42;;;;;;;9.48;80.62;101588.13;4990357;28;20062;-76
2021/04/02 08:29:32;;;;;;;10.52;2.83;;;;;;;9.76;80.80;101591.91;4963186;28;20038;-76
2021/04/02 08:32:01;;;;;;;15.05;2.35;;;;;;;9.92;79.61;101588.34;4973102;28;20042;-75
2021/04/02 08:34:28;;;;;;;12.40;2.70;;;;;;;10.41;79.52;101592.13;4987953;28;20034;-75
2021/04/02 08:36:57;;;;;;;10.25;2.17;;;;;;;10.73;77.96;101588.63;4991226;28;20023;-76
2021/04/02 08:39:24;;;;;;;12.57;3.67;;;;;;;11.21;75.15;101592.53;4990445;28;20403;-74
2021/04/02 08:42:02;;;;;;;9.27;2.33;;;;;;;11.48;70.85;101599.97;4987830;28;20538;-74
2021/04/02 08:44:35;;;;;;;8.48;2.00;;;;;;;11.34;70.65;101607.63;4990504;28;20030;-74
2021/04/02 08:47:03;;;;;;;10.85;2.22;;;;;;;11.20;69.91;101607.16;4986490;28;20434;-74
2021/04/02 08:49:38;;;;;;;10.30;2.15;;;;;;;11.05;70.28;101608.59;4990694;28;20454;-74
2021/04/02 08:52:12;;;;;;;10.70;2.35;;;;;;;10.98;69.36;101588.69;4984029;28;20100;-74
2021/04/02 08:54:38;;;;;;;9.50;2.30;;;;;;;10.83;70.77;101600.91;4990046;28;20104;-74
2021/04/02 08:57:05;;;;;;;7.95;2.25;;;;;;;11.02;68.80;101605.75;4992733;28;20472;-75
2021/04/02 08:59:34;;;;;;;6.85;2.33;;;;;;;10.97;70.02;101604.09;4982454;28;20030;-75
2021/04/02 09:02:00;;;;;;;17.98;2.60;;;;;;;11.02;69.52;101594.97;5021717;22;20062;-72
2021/04/02 09:04:27;;;;;;;19.08;2.78;;;;;;;11.02;69.30;101606.56;5011515;28;20037;-72
2021/04/02 09:06:53;;;;;;;11.25;2.13;;;;;;;11.18;68.64;101606.69;5014032;28;20362;-72
2021/04/02 09:09:21;;;;;;;13.48;2.33;;;;;;;11.15;68.92;101599.31;5001720;28;20049;-71
2021/04/02 09:11:50;;;;;;;11.43;2.75;;;;;;;11.21;68.06;101608.72;5011095;28;20056;-71
2021/04/02 09:14:16;;;;;;;10.27;2.83;;;;;;;11.08;68.62;101607.13;5002286;28;20042;-71
2021/04/02 09:16:44;;;;;;;11.50;2.78;;;;;;;11.06;68.46;101614.75;5000757;28;20101;-71
2021/04/02 09:19:11;;;;;;;13.52;2.78;;;;;;;10.70;69.46;101607.38;4996375;28;20053;-71
2021/04/02 09:21:37;;;;;;;10.20;2.60;;;;;;;10.73;69.30;101606.69;4979464;28;20038;-71
2021/04/02 09:24:04;;;;;;;10.98;2.20;;;;;;;10.67;69.77;101616.09;4998867;28;20034;-70
2021/04/02 09:26:35;;;;;;;9.77;2.08;;;;;;;10.70;68.36;101610.06;5001971;28;20034;-70
2021/04/02 09:29:01;;;;;;;;;;;;;;;10.51;69.77;101615.16;4990421;28;20038;-70
2021/04/02 09:31:33;;;;;;;15.20;2.22;;;;;;;10.32;69.72;101601.34;5002451;28;19914;-71
2021/04/02 09:34:05;;;;;;;16.65;2.33;;;;;;;10.20;70.55;101594.00;5004018;28;20048;-71
2021/04/02 09:36:39;;;;;;;15.88;2.50;;;;;;;10.09;71.58;101594.69;5002035;28;20517;-71
2021/04/02 09:39:10;;;;;;;13.10;2.22;;;;;;;10.28;71.39;101587.00;5007159;28;20456;-71
2021/04/02 09:41:48;;;;;;;14.20;2.13;;;;;;;10.31;70.27;101595.22;4999558;28;20026;-71
2021/04/02 09:44:16;;;;;;;12.60;2.35;;;;;;;10.45;69.38;101584.16;5006023;28;20048;-71
2021/04/02 09:46:44;;;;;;;11.57;2.35;;;;;;;10.37;71.02;101574.25;4995242;28;20037;-71
2021/04/02 09:49:18;;;;;;;11.15;2.53;;;;;;;10.26;71.04;101581.94;5002225;28;20369;-72
2021/04/02 09:51:46;;;;;;;8.25;2.22;;;;;;;10.30;69.96;101574.00;5004315;28;20030;-72
2021/04/02 09:54:13;;;;;;;12.68;2.72;;;;;;;10.28;69.21;101574.31;4997234;28;20501;-72
2021/04/02 09:56:39;;;;;;;10.48;2.35;;;;;;;10.33;68.61;101578.72;5000225;28;20479;-72
2021/04/02 09:59:06;;;;;;;12.80;2.53;;;;;;;10.27;69.16;101566.56;5013017;28;20058;-71
2021/04/02 10:01:33;;;;;;;7.78;2.47;;;;;;;10.31;69.67;101575.56;5001313;28;20030;-72
2021/04/02 10:03:59;;;;;;;13.15;3.05;;;;;;;10.37;68.83;101575.06;5006456;28;20057;-72
2021/04/02 10:06:25;;;;;;;13.57;2.63;;;;;;;10.37;69.18;101566.19;5005313;28;21665;-71
2021/04/02 10:08:50;;;;;;;15.60;2.88;;;;;;;10.38;69.39;101573.13;4988633;28;20483;-71
2021/04/02 10:11:16;;;;;;;15.65;2.92;;;;;;;10.49;68.98;101564.31;4977057;28;20038;-71
2021/04/02 10:13:42;;;;;;;10.77;2.17;;;;;;;10.58;69.28;101559.66;4993197;28;20057;-72
2021/04/02 10:16:08;;;;;;;10.00;2.95;;;;;;;10.48;69.24;101564.63;4991024;28;20038;-71
2021/04/02 10:18:35;;;;;;;9.10;2.92;;;;;;;10.52;69.17;101560.97;4972274;28;20071;-71
2021/04/02 10:21:03;;;;;;;12.30;2.88;;;;;;;10.64;68.45;101561.00;4995372;28;20049;-72
2021/04/02 10:23:28;;;;;;;13.18;2.65;;;;;;;10.62;69.18;101557.88;4988270;28;20034;-71
2021/04/02 10:25:54;;;;;;;11.52;3.15;;;;;;;10.64;67.50;101566.41;4989956;28;20030;-71
2021/04/02 10:28:20;;;;;;;13.63;2.95;;;;;;;10.50;67.95;101557.81;4989401;28;20042;-71
2021/04/02 10:30:48;;;;;;;11.35;2.88;;;;;;;10.50;68.32;101559.72;4985899;28;20030;-71
2021/04/02 10:33:13;;;;;;;11.98;3.08;;;;;;;10.44;68.28;101550.25;4998081;28;20034;-71
2021/04/02 10:35:39;;;;;;;9.93;2.85;;;;;;;10.36;68.92;101564.59;4998384;28;20041;-72
2021/04/02 10:38:04;;;;;;;11.63;3.10;;;;;;;10.34;68.70;101559.53;4996304;28;20038;-72
2021/04/02 10:40:30;;;;;;;10.10;2.78;;;;;;;10.45;68.34;101558.00;5007973;28;20505;-71
2021/04/02 10:42:57;;;;;;;13.23;2.67;;;;;;;10.33;69.38;101563.38;5008934;28;20712;-72
2021/04/02 10:45:22;;;;;;;16.02;2.78;;;;;;;10.38;70.13;101552.38;4998953;28;20108;-72
2021/04/02 10:47:47;;;;;;;13.25;2.92;;;;;;;10.46;69.92;101556.09;4990891;28;20612;-71
2021/04/02 10:50:13;;;;;;;16.88;3.03;;;;;;;10.51;69.77;101556.69;5010106;28;20037;-72
2021/04/02 10:52:39;;;;;;;12.70;2.85;;;;;;;10.38;70.24;101565.84;5004398;28;20044;-71
2021/04/02 10:55:05;;;;;;;12.70;2.70;;;;;;;10.33;70.01;101555.28;5005171;28;20074;-71
2021/04/02 10:57:31;;;;;;;14.30;3.08;;;;;;;10.30;69.89;101564.00;4995087;28;20034;-71
2021/04/02 10:59:56;;;;;;;13.38;2.58;;;;;;;10.26;70.43;101540.78;4995011;28;20038;-71
2021/04/02 11:02:22;;;;;;;11.20;2.47;;;;;;;10.29;71.12;101554.38;4981237;28;20541;-71
2021/04/02 11:04:47;;;;;;;15.43;3.70;;;;;;;10.46;70.81;101548.81;4999652;28;20085;-72
2021/04/02 11:07:13;;;;;;;11.13;2.40;;;;;;;10.61;70.10;101547.41;4998584;28;20034;-71
2021/04/02 11:09:38;;;;;;;9.63;2.75;;;;;;;10.41;70.82;101540.97;5007138;28;20367;-72
2021/04/02 11:12:04;;;;;;;11.93;2.90;;;;;;;10.46;70.68;101534.56;5002756;28;20044;-71
2021/04/02 11:14:30;;;;;;;12.93;2.65;;;;;;;10.39;70.14;101537.81;5002608;28;20045;-71
2021/04/02 11:16:57;;;;;;;11.95;2.65;;;;;;;10.31;70.33;101538.69;5009331;28;20121;-71
2021/04/02 11:19:22;;;;;;;8.48;2.50;;;;;;;10.32;70.70;101542.13;5013670;28;20546;-72
2021/04/02 11:21:48;;;;;;;7.10;2.63;;;;;;;10.43;70.67;101540.63;4997242;28;20061;-72
2021/04/02 11:24:13;;;;;;;10.90;3.08;;;;;;;10.39;70.70;101523.56;4982969;28;20044;-71
2021/04/02 11:26:39;;;;;;;13.18;2.47;;;;;;;10.49;70.17;101529.28;4987652;28;20490;-71
2021/04/02 11:29:04;;;;;;;12.95;2.40;;;;;;;10.38;70.00;101509.31;4985962;28;20037;-72
2021/04/02 11:31:30;;;;;;;7.40;2.17;;;;;;;10.53;69.82;101505.97;5001374;28;20044;-71
2021/04/02 11:33:55;;;;;;;10.75;2.42;;;;;;;10.57;69.03;101504.19;4999550;28;20041;-72